sensor_id;sensor_type;location;lat;lon;timestamp;pressure;altitude;pressure_sealevel;temperature;humidity
53908;BME280;40469;47.998;7.794;2023-12-07T00:01:10;99366.91;;;1.65;100.00
53908;BME280;40469;47.998;7.794;2023-12-07T00:03:35;99361.47;;;1.56;100.00
53908;BME280;40469;47.998;7.794;2023-12-07T00:06:01;99364.41;;;1.66;100.00
53908;BME280;40469;47.998;7.794;2023-12-07T00:08:26;99364.34;;;1.65;100.00
53908;BME280;40469;47.998;7.794;2023-12-07T00:10:51;99356.97;;;1.50;100.00
53908;BME280;40469;47.998;7.794;2023-12-07T00:13:17;99366.22;;;1.43;100.00
53908;BME280;40469;47.998;7.794;2023-12-07T00:15:42;99359.38;;;1.44;100.00
53908;BME280;40469;47.998;7.794;2023-12-07T00:18:08;99362.75;;;1.43;100.00
53908;BME280;40469;47.998;7.794;2023-12-07T00:20:33;99366.84;;;1.36;100.00
53908;BME280;40469;47.998;7.794;2023-12-07T00:22:59;99369.56;;;1.41;100.00
53908;BME280;40469;47.998;7.794;2023-12-07T00:25:24;99366.94;;;1.39;100.00
53908;BME280;40469;47.998;7.794;2023-12-07T00:27:49;99360.81;;;1.36;100.00
53908;BME280;40469;47.998;7.794;2023-12-07T00:30:15;99366.94;;;1.39;100.00
53908;BME280;40469;47.998;7.794;2023-12-07T00:32:41;99374.75;;;1.42;100.00
53908;BME280;40469;47.998;7.794;2023-12-07T00:35:10;99364.41;;;1.41;100.00
53908;BME280;40469;47.998;7.794;2023-12-07T00:37:36;99374.66;;;1.39;100.00
53908;BME280;40469;47.998;7.794;2023-12-07T00:40:01;99374.69;;;1.41;100.00
53908;BME280;40469;47.998;7.794;2023-12-07T00:42:27;99373.28;;;1.49;100.00
53908;BME280;40469;47.998;7.794;2023-12-07T00:44:52;99368.22;;;1.52;100.00
53908;BME280;40469;47.998;7.794;2023-12-07T00:47:18;99375.31;;;1.59;100.00
53908;BME280;40469;47.998;7.794;2023-12-07T00:49:43;99369.38;;;1.62;100.00
53908;BME280;40469;47.998;7.794;2023-12-07T00:52:09;99370.19;;;1.59;100.00
53908;BME280;40469;47.998;7.794;2023-12-07T00:54:34;99371.19;;;1.64;100.00
53908;BME280;40469;47.998;7.794;2023-12-07T00:56:59;99374.47;;;1.60;100.00
53908;BME280;40469;47.998;7.794;2023-12-07T00:59:25;99382.31;;;1.63;100.00
53908;BME280;40469;47.998;7.794;2023-12-07T01:01:50;99382.88;;;1.55;100.00
53908;BME280;40469;47.998;7.794;2023-12-07T01:04:16;99374.06;;;1.48;100.00
53908;BME280;40469;47.998;7.794;2023-12-07T01:06:41;99384.66;;;1.56;100.00
53908;BME280;40469;47.998;7.794;2023-12-07T01:09:08;99382.69;;;1.48;100.00
53908;BME280;40469;47.998;7.794;2023-12-07T01:11:38;99377.69;;;1.53;100.00
53908;BME280;40469;47.998;7.794;2023-12-07T01:14:04;99386.13;;;1.49;100.00
53908;BME280;40469;47.998;7.794;2023-12-07T01:16:30;99393.59;;;1.41;100.00
53908;BME280;40469;47.998;7.794;2023-12-07T01:18:55;99385.06;;;1.42;100.00
53908;BME280;40469;47.998;7.794;2023-12-07T01:21:21;99383.81;;;1.31;100.00
53908;BME280;40469;47.998;7.794;2023-12-07T01:23:46;99388.97;;;1.31;100.00
53908;BME280;40469;47.998;7.794;2023-12-07T01:26:11;99390.63;;;1.29;100.00
53908;BME280;40469;47.998;7.794;2023-12-07T01:28:37;99389.84;;;1.31;100.00
53908;BME280;40469;47.998;7.794;2023-12-07T01:31:02;99385.66;;;1.35;100.00
53908;BME280;40469;47.998;7.794;2023-12-07T01:33:27;99386.59;;;1.37;100.00
53908;BME280;40469;47.998;7.794;2023-12-07T01:35:53;99382.38;;;1.39;100.00
53908;BME280;40469;47.998;7.794;2023-12-07T01:38:18;99375.19;;;1.29;100.00
53908;BME280;40469;47.998;7.794;2023-12-07T01:40:44;99374.41;;;1.31;100.00
53908;BME280;40469;47.998;7.794;2023-12-07T01:43:09;99379.53;;;1.31;100.00
53908;BME280;40469;47.998;7.794;2023-12-07T01:45:35;99380.41;;;1.32;100.00
53908;BME280;40469;47.998;7.794;2023-12-07T01:48:00;99383.03;;;1.33;100.00
53908;BME280;40469;47.998;7.794;2023-12-07T01:50:26;99377.09;;;1.35;100.00
53908;BME280;40469;47.998;7.794;2023-12-07T01:52:59;99383.88;;;1.32;100.00
53908;BME280;40469;47.998;7.794;2023-12-07T01:55:25;99370.59;;;1.20;100.00
53908;BME280;40469;47.998;7.794;2023-12-07T01:57:52;99384.06;;;1.13;100.00
53908;BME280;40469;47.998;7.794;2023-12-07T02:00:18;99385.09;;;1.18;100.00
53908;BME280;40469;47.998;7.794;2023-12-07T02:02:44;99387.72;;;1.20;100.00
53908;BME280;40469;47.998;7.794;2023-12-07T02:05:12;99381.63;;;1.18;100.00
53908;BME280;40469;47.998;7.794;2023-12-07T02:07:40;99379.25;;;1.22;100.00
53908;BME280;40469;47.998;7.794;2023-12-07T02:10:06;99379.28;;;1.24;100.00
53908;BME280;40469;47.998;7.794;2023-12-07T02:12:32;99379.13;;;1.19;100.00
53908;BME280;40469;47.998;7.794;2023-12-07T02:15:00;99380.09;;;1.23;100.00
53908;BME280;40469;47.998;7.794;2023-12-07T02:17:52;99382.31;;;1.12;100.00
53908;BME280;40469;47.998;7.794;2023-12-07T02:20:31;99376.25;;;1.10;100.00
53908;BME280;40469;47.998;7.794;2023-12-07T02:23:01;99383.53;;;1.23;100.00
53908;BME280;40469;47.998;7.794;2023-12-07T02:25:36;99387.34;;;1.09;100.00
53908;BME280;40469;47.998;7.794;2023-12-07T02:28:02;99394.84;;;1.03;100.00
53908;BME280;40469;47.998;7.794;2023-12-07T02:30:28;99399.94;;;1.01;100.00
53908;BME280;40469;47.998;7.794;2023-12-07T02:32:53;99405.09;;;1.01;100.00
53908;BME280;40469;47.998;7.794;2023-12-07T02:35:19;99403.94;;;0.93;100.00
53908;BME280;40469;47.998;7.794;2023-12-07T02:37:48;99403.25;;;0.99;100.00
53908;BME280;40469;47.998;7.794;2023-12-07T02:40:18;99406.81;;;1.02;100.00
53908;BME280;40469;47.998;7.794;2023-12-07T02:42:44;99405.22;;;1.06;100.00
53908;BME280;40469;47.998;7.794;2023-12-07T02:45:10;99407.97;;;0.86;100.00
53908;BME280;40469;47.998;7.794;2023-12-07T02:47:37;99406.88;;;0.80;100.00
53908;BME280;40469;47.998;7.794;2023-12-07T02:50:04;99397.47;;;0.80;100.00
53908;BME280;40469;47.998;7.794;2023-12-07T02:52:30;99390.31;;;0.71;100.00
53908;BME280;40469;47.998;7.794;2023-12-07T02:54:56;99388.72;;;0.75;100.00
53908;BME280;40469;47.998;7.794;2023-12-07T02:57:21;99393.97;;;0.78;100.00
53908;BME280;40469;47.998;7.794;2023-12-07T02:59:46;99387.19;;;0.80;100.00
53908;BME280;40469;47.998;7.794;2023-12-07T03:02:12;99400.03;;;0.80;100.00
53908;BME280;40469;47.998;7.794;2023-12-07T03:04:37;99387.19;;;0.80;100.00
53908;BME280;40469;47.998;7.794;2023-12-07T03:07:02;99391.50;;;0.81;100.00
53908;BME280;40469;47.998;7.794;2023-12-07T03:09:28;99393.09;;;0.78;100.00
53908;BME280;40469;47.998;7.794;2023-12-07T03:11:53;99390.38;;;0.73;100.00
53908;BME280;40469;47.998;7.794;2023-12-07T03:14:19;99384.38;;;0.74;100.00
53908;BME280;40469;47.998;7.794;2023-12-07T03:16:45;99385.81;;;0.66;100.00
53908;BME280;40469;47.998;7.794;2023-12-07T03:19:10;99389.09;;;0.62;100.00
53908;BME280;40469;47.998;7.794;2023-12-07T03:21:39;99392.31;;;0.56;100.00
53908;BME280;40469;47.998;7.794;2023-12-07T03:24:04;99394.53;;;0.69;100.00
53908;BME280;40469;47.998;7.794;2023-12-07T03:26:31;99399.41;;;0.63;100.00
53908;BME280;40469;47.998;7.794;2023-12-07T03:28:56;99399.16;;;0.55;100.00
53908;BME280;40469;47.998;7.794;2023-12-07T03:31:21;99408.56;;;0.55;100.00
53908;BME280;40469;47.998;7.794;2023-12-07T03:33:46;99406.78;;;0.54;100.00
53908;BME280;40469;47.998;7.794;2023-12-07T03:36:12;99408.25;;;0.47;100.00
53908;BME280;40469;47.998;7.794;2023-12-07T03:38:37;99413.97;;;0.40;100.00
53908;BME280;40469;47.998;7.794;2023-12-07T03:41:03;99409.69;;;0.39;100.00
53908;BME280;40469;47.998;7.794;2023-12-07T03:43:29;99403.44;;;0.32;100.00
53908;BME280;40469;47.998;7.794;2023-12-07T03:45:54;99404.22;;;0.31;100.00
53908;BME280;40469;47.998;7.794;2023-12-07T03:48:20;99401.72;;;0.33;100.00
53908;BME280;40469;47.998;7.794;2023-12-07T03:50:45;99402.50;;;0.30;100.00
53908;BME280;40469;47.998;7.794;2023-12-07T03:53:11;99409.31;;;0.30;100.00
53908;BME280;40469;47.998;7.794;2023-12-07T03:55:36;99412.53;;;0.24;100.00
53908;BME280;40469;47.998;7.794;2023-12-07T03:58:02;99411.66;;;0.24;100.00
53908;BME280;40469;47.998;7.794;2023-12-07T04:00:27;99419.28;;;0.22;100.00
53908;BME280;40469;47.998;7.794;2023-12-07T04:02:53;99412.06;;;0.34;100.00
53908;BME280;40469;47.998;7.794;2023-12-07T04:05:18;99413.50;;;0.28;100.00
53908;BME280;40469;47.998;7.794;2023-12-07T04:07:43;99414.50;;;0.31;100.00
53908;BME280;40469;47.998;7.794;2023-12-07T04:10:09;99404.06;;;0.27;100.00
53908;BME280;40469;47.998;7.794;2023-12-07T04:12:34;99397.25;;;0.27;100.00
53908;BME280;40469;47.998;7.794;2023-12-07T04:15:00;99402.25;;;0.24;100.00
53908;BME280;40469;47.998;7.794;2023-12-07T04:17:25;99407.69;;;0.09;100.00
53908;BME280;40469;47.998;7.794;2023-12-07T04:19:50;99402.34;;;0.05;100.00
53908;BME280;40469;47.998;7.794;2023-12-07T04:22:16;99409.13;;;0.03;100.00
53908;BME280;40469;47.998;7.794;2023-12-07T04:24:41;99405.06;;;0.08;100.00
53908;BME280;40469;47.998;7.794;2023-12-07T04:27:06;99406.84;;;0.10;100.00
53908;BME280;40469;47.998;7.794;2023-12-07T04:29:32;99399.97;;;0.09;100.00
53908;BME280;40469;47.998;7.794;2023-12-07T04:31:57;99401.97;;;0.16;100.00
53908;BME280;40469;47.998;7.794;2023-12-07T04:34:22;99399.63;;;0.23;100.00
53908;BME280;40469;47.998;7.794;2023-12-07T04:36:48;99407.44;;;0.26;100.00
53908;BME280;40469;47.998;7.794;2023-12-07T04:39:13;99407.78;;;0.12;100.00
53908;BME280;40469;47.998;7.794;2023-12-07T04:41:38;99408.41;;;0.07;100.00
53908;BME280;40469;47.998;7.794;2023-12-07T04:44:04;99407.78;;;0.12;100.00
53908;BME280;40469;47.998;7.794;2023-12-07T04:46:29;99406.63;;;0.04;100.00
53908;BME280;40469;47.998;7.794;2023-12-07T04:48:55;99410.13;;;0.06;100.00
53908;BME280;40469;47.998;7.794;2023-12-07T04:51:20;99403.84;;;-0.01;100.00
53908;BME280;40469;47.998;7.794;2023-12-07T04:53:46;99410.81;;;0.02;100.00
53908;BME280;40469;47.998;7.794;2023-12-07T04:56:12;99411.34;;;-0.07;100.00
53908;BME280;40469;47.998;7.794;2023-12-07T04:58:37;99412.47;;;-0.21;100.00
53908;BME280;40469;47.998;7.794;2023-12-07T05:01:03;99412.16;;;-0.29;100.00
53908;BME280;40469;47.998;7.794;2023-12-07T05:03:29;99410.59;;;-0.25;100.00
53908;BME280;40469;47.998;7.794;2023-12-07T05:05:54;99401.66;;;-0.14;100.00
53908;BME280;40469;47.998;7.794;2023-12-07T05:08:19;99400.56;;;-0.19;100.00
53908;BME280;40469;47.998;7.794;2023-12-07T05:10:45;99398.94;;;-0.17;100.00
53908;BME280;40469;47.998;7.794;2023-12-07T05:13:10;99394.50;;;-0.21;100.00
53908;BME280;40469;47.998;7.794;2023-12-07T05:15:35;99390.41;;;-0.16;100.00
53908;BME280;40469;47.998;7.794;2023-12-07T05:18:01;99395.81;;;-0.10;100.00
53908;BME280;40469;47.998;7.794;2023-12-07T05:20:26;99393.44;;;-0.26;100.00
53908;BME280;40469;47.998;7.794;2023-12-07T05:22:53;99401.72;;;-0.33;100.00
53908;BME280;40469;47.998;7.794;2023-12-07T05:25:18;99388.31;;;-0.26;100.00
53908;BME280;40469;47.998;7.794;2023-12-07T05:27:44;99389.13;;;-0.27;100.00
53908;BME280;40469;47.998;7.794;2023-12-07T05:30:10;99392.97;;;-0.16;100.00
53908;BME280;40469;47.998;7.794;2023-12-07T05:32:35;99398.59;;;-0.26;100.00
53908;BME280;40469;47.998;7.794;2023-12-07T05:35:01;99402.22;;;-0.42;100.00
53908;BME280;40469;47.998;7.794;2023-12-07T05:37:26;99399.19;;;-0.32;100.00
53908;BME280;40469;47.998;7.794;2023-12-07T05:39:52;99408.00;;;-0.46;100.00
53908;BME280;40469;47.998;7.794;2023-12-07T05:42:17;99406.44;;;-0.43;100.00
53908;BME280;40469;47.998;7.794;2023-12-07T05:44:44;99406.59;;;-0.40;100.00
53908;BME280;40469;47.998;7.794;2023-12-07T05:47:09;99407.34;;;-0.42;100.00
53908;BME280;40469;47.998;7.794;2023-12-07T05:49:34;99402.28;;;-0.41;100.00
53908;BME280;40469;47.998;7.794;2023-12-07T05:52:00;99401.94;;;-0.48;100.00
53908;BME280;40469;47.998;7.794;2023-12-07T05:54:25;99405.63;;;-0.63;100.00
53908;BME280;40469;47.998;7.794;2023-12-07T05:56:51;99398.88;;;-0.61;100.00
53908;BME280;40469;47.998;7.794;2023-12-07T05:59:16;99404.16;;;-0.58;100.00
53908;BME280;40469;47.998;7.794;2023-12-07T06:01:41;99422.09;;;-0.58;100.00
53908;BME280;40469;47.998;7.794;2023-12-07T06:04:08;99417.09;;;-0.54;100.00
53908;BME280;40469;47.998;7.794;2023-12-07T06:06:34;99418.91;;;-0.52;100.00
53908;BME280;40469;47.998;7.794;2023-12-07T06:08:59;99416.03;;;-0.60;100.00
53908;BME280;40469;47.998;7.794;2023-12-07T06:11:25;99431.41;;;-0.60;100.00
53908;BME280;40469;47.998;7.794;2023-12-07T06:13:50;99438.59;;;-0.72;100.00
53908;BME280;40469;47.998;7.794;2023-12-07T06:16:15;99431.69;;;-0.73;100.00
53908;BME280;40469;47.998;7.794;2023-12-07T06:18:42;99446.75;;;-1.20;100.00
53908;BME280;40469;47.998;7.794;2023-12-07T06:21:08;99448.41;;;-1.40;100.00
53908;BME280;40469;47.998;7.794;2023-12-07T06:23:33;99448.41;;;-1.02;100.00
53908;BME280;40469;47.998;7.794;2023-12-07T06:25:59;99438.78;;;-0.87;100.00
53908;BME280;40469;47.998;7.794;2023-12-07T06:28:24;99438.41;;;-0.96;100.00
53908;BME280;40469;47.998;7.794;2023-12-07T06:30:50;99437.22;;;-1.42;100.00
53908;BME280;40469;47.998;7.794;2023-12-07T06:33:15;99436.09;;;-1.29;100.00
53908;BME280;40469;47.998;7.794;2023-12-07T06:35:41;99430.91;;;-1.68;100.00
53908;BME280;40469;47.998;7.794;2023-12-07T06:38:06;99429.69;;;-1.76;100.00
53908;BME280;40469;47.998;7.794;2023-12-07T06:40:32;99422.13;;;-1.73;100.00
53908;BME280;40469;47.998;7.794;2023-12-07T06:43:00;99420.47;;;-1.73;100.00
53908;BME280;40469;47.998;7.794;2023-12-07T06:45:26;99424.31;;;-1.63;100.00
53908;BME280;40469;47.998;7.794;2023-12-07T06:47:51;99422.16;;;-1.36;100.00
53908;BME280;40469;47.998;7.794;2023-12-07T06:50:16;99418.28;;;-1.45;100.00
53908;BME280;40469;47.998;7.794;2023-12-07T06:52:42;99402.72;;;-1.50;100.00
53908;BME280;40469;47.998;7.794;2023-12-07T06:55:08;99417.97;;;-1.34;100.00
53908;BME280;40469;47.998;7.794;2023-12-07T06:57:35;99418.44;;;-1.42;100.00
53908;BME280;40469;47.998;7.794;2023-12-07T07:00:01;99414.53;;;-1.34;100.00
53908;BME280;40469;47.998;7.794;2023-12-07T07:02:30;99412.81;;;-1.53;100.00
53908;BME280;40469;47.998;7.794;2023-12-07T07:04:56;99413.00;;;-1.48;100.00
53908;BME280;40469;47.998;7.794;2023-12-07T07:07:21;99393.22;;;-1.33;100.00
53908;BME280;40469;47.998;7.794;2023-12-07T07:09:46;99391.66;;;-1.10;100.00
53908;BME280;40469;47.998;7.794;2023-12-07T07:12:12;99392.00;;;-1.02;100.00
53908;BME280;40469;47.998;7.794;2023-12-07T07:14:38;99404.13;;;-0.98;100.00
53908;BME280;40469;47.998;7.794;2023-12-07T07:17:04;99398.81;;;-1.03;100.00
53908;BME280;40469;47.998;7.794;2023-12-07T07:19:30;99406.16;;;-1.10;100.00
53908;BME280;40469;47.998;7.794;2023-12-07T07:21:55;99404.13;;;-0.98;100.00
53908;BME280;40469;47.998;7.794;2023-12-07T07:24:21;99405.75;;;-1.39;100.00
53908;BME280;40469;47.998;7.794;2023-12-07T07:26:46;99398.94;;;-1.39;100.00
53908;BME280;40469;47.998;7.794;2023-12-07T07:29:11;99407.03;;;-1.29;100.00
53908;BME280;40469;47.998;7.794;2023-12-07T07:31:37;99402.06;;;-1.26;100.00
53908;BME280;40469;47.998;7.794;2023-12-07T07:34:02;99405.78;;;-1.20;100.00
53908;BME280;40469;47.998;7.794;2023-12-07T07:36:28;99410.06;;;-1.19;100.00
53908;BME280;40469;47.998;7.794;2023-12-07T07:38:56;99404.88;;;-1.20;100.00
53908;BME280;40469;47.998;7.794;2023-12-07T07:41:22;99388.91;;;-1.34;100.00
53908;BME280;40469;47.998;7.794;2023-12-07T07:43:47;99387.53;;;-1.45;100.00
53908;BME280;40469;47.998;7.794;2023-12-07T07:46:14;99377.59;;;-1.39;100.00
53908;BME280;40469;47.998;7.794;2023-12-07T07:48:39;99375.59;;;-1.45;100.00
53908;BME280;40469;47.998;7.794;2023-12-07T07:51:04;99369.78;;;-1.42;100.00
53908;BME280;40469;47.998;7.794;2023-12-07T07:53:30;99379.22;;;-1.22;100.00
53908;BME280;40469;47.998;7.794;2023-12-07T07:55:55;99369.44;;;-1.30;100.00
53908;BME280;40469;47.998;7.794;2023-12-07T07:58:20;99372.59;;;-1.36;100.00
53908;BME280;40469;47.998;7.794;2023-12-07T08:00:46;99378.84;;;-1.10;100.00
53908;BME280;40469;47.998;7.794;2023-12-07T08:03:12;99377.16;;;-0.90;100.00
53908;BME280;40469;47.998;7.794;2023-12-07T08:05:37;99384.47;;;-0.78;100.00
53908;BME280;40469;47.998;7.794;2023-12-07T08:08:03;99393.44;;;-0.68;100.00
53908;BME280;40469;47.998;7.794;2023-12-07T08:10:28;99402.06;;;-0.66;100.00
53908;BME280;40469;47.998;7.794;2023-12-07T08:12:53;99398.28;;;-0.74;100.00
53908;BME280;40469;47.998;7.794;2023-12-07T08:15:19;99397.50;;;-0.73;100.00
53908;BME280;40469;47.998;7.794;2023-12-07T08:17:45;99404.63;;;-0.66;100.00
53908;BME280;40469;47.998;7.794;2023-12-07T08:20:11;99401.06;;;-0.70;100.00
53908;BME280;40469;47.998;7.794;2023-12-07T08:22:38;99398.38;;;-0.73;100.00
53908;BME280;40469;47.998;7.794;2023-12-07T08:25:04;99396.06;;;-0.67;100.00
53908;BME280;40469;47.998;7.794;2023-12-07T08:27:32;99394.94;;;-0.73;100.00
53908;BME280;40469;47.998;7.794;2023-12-07T08:29:57;99394.69;;;-0.38;100.00
53908;BME280;40469;47.998;7.794;2023-12-07T08:32:23;99403.78;;;-0.02;100.00
53908;BME280;40469;47.998;7.794;2023-12-07T08:34:51;99406.72;;;0.30;100.00
53908;BME280;40469;47.998;7.794;2023-12-07T08:37:16;99405.75;;;0.49;100.00
53908;BME280;40469;47.998;7.794;2023-12-07T08:39:42;99403.91;;;0.69;100.00
53908;BME280;40469;47.998;7.794;2023-12-07T08:42:07;99405.69;;;0.94;100.00
53908;BME280;40469;47.998;7.794;2023-12-07T08:44:33;99411.22;;;1.05;100.00
53908;BME280;40469;47.998;7.794;2023-12-07T08:46:58;99409.13;;;1.19;100.00
53908;BME280;40469;47.998;7.794;2023-12-07T08:49:24;99392.25;;;1.27;100.00
53908;BME280;40469;47.998;7.794;2023-12-07T08:51:49;99405.50;;;0.89;100.00
53908;BME280;40469;47.998;7.794;2023-12-07T08:54:14;99404.69;;;0.66;100.00
53908;BME280;40469;47.998;7.794;2023-12-07T08:56:44;99403.69;;;0.63;100.00
53908;BME280;40469;47.998;7.794;2023-12-07T08:59:09;99399.28;;;0.59;100.00
53908;BME280;40469;47.998;7.794;2023-12-07T09:01:34;99397.31;;;0.53;100.00
53908;BME280;40469;47.998;7.794;2023-12-07T09:04:00;99390.66;;;0.34;100.00
53908;BME280;40469;47.998;7.794;2023-12-07T09:06:25;99388.34;;;0.42;100.00
53908;BME280;40469;47.998;7.794;2023-12-07T09:08:51;99387.41;;;0.62;100.00
53908;BME280;40469;47.998;7.794;2023-12-07T09:11:16;99394.13;;;0.59;100.00
53908;BME280;40469;47.998;7.794;2023-12-07T09:13:41;99394.88;;;0.56;100.00
53908;BME280;40469;47.998;7.794;2023-12-07T09:16:07;99386.59;;;0.41;100.00
53908;BME280;40469;47.998;7.794;2023-12-07T09:18:33;99386.69;;;0.66;100.00
53908;BME280;40469;47.998;7.794;2023-12-07T09:21:00;99382.34;;;0.64;100.00
53908;BME280;40469;47.998;7.794;2023-12-07T09:23:25;99383.28;;;0.43;100.00
53908;BME280;40469;47.998;7.794;2023-12-07T09:25:51;99385.19;;;0.49;100.00
53908;BME280;40469;47.998;7.794;2023-12-07T09:28:17;99378.53;;;0.54;100.00
53908;BME280;40469;47.998;7.794;2023-12-07T09:30:42;99378.19;;;0.67;100.00
53908;BME280;40469;47.998;7.794;2023-12-07T09:33:09;99380.94;;;0.73;100.00
53908;BME280;40469;47.998;7.794;2023-12-07T09:35:34;99373.19;;;0.96;100.00
53908;BME280;40469;47.998;7.794;2023-12-07T09:38:00;99366.81;;;1.10;100.00
53908;BME280;40469;47.998;7.794;2023-12-07T09:40:25;99364.19;;;1.09;100.00
53908;BME280;40469;47.998;7.794;2023-12-07T09:42:53;99374.22;;;1.01;100.00
53908;BME280;40469;47.998;7.794;2023-12-07T09:45:19;99369.91;;;1.00;100.00
53908;BME280;40469;47.998;7.794;2023-12-07T09:47:53;99363.34;;;1.08;100.00
53908;BME280;40469;47.998;7.794;2023-12-07T09:50:20;99358.25;;;1.10;100.00
53908;BME280;40469;47.998;7.794;2023-12-07T09:52:50;99359.06;;;1.09;100.00
53908;BME280;40469;47.998;7.794;2023-12-07T09:55:19;99359.31;;;0.91;100.00
53908;BME280;40469;47.998;7.794;2023-12-07T09:57:45;99362.53;;;0.61;100.00
53908;BME280;40469;47.998;7.794;2023-12-07T10:00:11;99362.75;;;0.67;100.00
53908;BME280;40469;47.998;7.794;2023-12-07T10:02:39;99371.63;;;0.53;100.00
53908;BME280;40469;47.998;7.794;2023-12-07T10:05:07;99365.63;;;0.52;100.00
53908;BME280;40469;47.998;7.794;2023-12-07T10:07:36;99357.91;;;0.52;100.00
53908;BME280;40469;47.998;7.794;2023-12-07T10:10:03;99352.34;;;0.40;100.00
53908;BME280;40469;47.998;7.794;2023-12-07T10:12:32;99352.78;;;0.52;100.00
53908;BME280;40469;47.998;7.794;2023-12-07T10:15:12;99349.09;;;0.44;100.00
53908;BME280;40469;47.998;7.794;2023-12-07T10:17:50;99349.72;;;0.63;100.00
53908;BME280;40469;47.998;7.794;2023-12-07T10:20:17;99339.88;;;0.99;100.00
53908;BME280;40469;47.998;7.794;2023-12-07T10:22:43;99343.47;;;1.30;100.00
53908;BME280;40469;47.998;7.794;2023-12-07T10:25:10;99335.50;;;1.75;100.00
53908;BME280;40469;47.998;7.794;2023-12-07T10:27:38;99330.69;;;1.59;100.00
53908;BME280;40469;47.998;7.794;2023-12-07T10:30:05;99334.38;;;1.67;100.00
53908;BME280;40469;47.998;7.794;2023-12-07T10:32:32;99324.13;;;1.68;100.00
53908;BME280;40469;47.998;7.794;2023-12-07T10:35:01;99328.03;;;1.56;100.00
53908;BME280;40469;47.998;7.794;2023-12-07T10:37:26;99321.94;;;1.81;100.00
53908;BME280;40469;47.998;7.794;2023-12-07T10:39:52;99322.03;;;1.57;100.00
53908;BME280;40469;47.998;7.794;2023-12-07T10:42:18;99317.50;;;2.04;100.00
53908;BME280;40469;47.998;7.794;2023-12-07T10:44:48;99312.03;;;1.93;100.00
53908;BME280;40469;47.998;7.794;2023-12-07T10:47:15;99314.97;;;1.77;100.00
53908;BME280;40469;47.998;7.794;2023-12-07T10:49:43;99309.72;;;2.02;100.00
53908;BME280;40469;47.998;7.794;2023-12-07T10:52:13;99302.25;;;2.12;100.00
53908;BME280;40469;47.998;7.794;2023-12-07T10:54:50;99285.13;;;2.12;100.00
53908;BME280;40469;47.998;7.794;2023-12-07T10:57:19;99279.72;;;2.33;100.00
53908;BME280;40469;47.998;7.794;2023-12-07T10:59:47;99267.94;;;2.43;100.00
53908;BME280;40469;47.998;7.794;2023-12-07T11:02:15;99260.03;;;2.05;100.00
53908;BME280;40469;47.998;7.794;2023-12-07T11:04:41;99253.38;;;2.13;100.00
53908;BME280;40469;47.998;7.794;2023-12-07T11:07:10;99240.06;;;2.28;100.00
53908;BME280;40469;47.998;7.794;2023-12-07T11:09:44;99228.56;;;2.49;100.00
53908;BME280;40469;47.998;7.794;2023-12-07T11:12:19;99227.16;;;1.67;100.00
53908;BME280;40469;47.998;7.794;2023-12-07T11:14:46;99228.97;;;1.43;100.00
53908;BME280;40469;47.998;7.794;2023-12-07T11:17:14;99230.25;;;1.28;100.00
53908;BME280;40469;47.998;7.794;2023-12-07T11:19:44;99222.50;;;1.84;100.00
53908;BME280;40469;47.998;7.794;2023-12-07T11:22:13;99214.00;;;2.49;100.00
53908;BME280;40469;47.998;7.794;2023-12-07T11:24:52;99204.56;;;2.83;100.00
53908;BME280;40469;47.998;7.794;2023-12-07T11:27:18;99195.41;;;2.96;100.00
53908;BME280;40469;47.998;7.794;2023-12-07T11:29:46;99192.19;;;3.04;100.00
53908;BME280;40469;47.998;7.794;2023-12-07T11:32:12;99192.44;;;3.53;100.00
53908;BME280;40469;47.998;7.794;2023-12-07T11:34:40;99190.34;;;3.37;100.00
53908;BME280;40469;47.998;7.794;2023-12-07T11:37:06;99185.75;;;3.23;100.00
53908;BME280;40469;47.998;7.794;2023-12-07T11:39:41;99177.28;;;3.29;100.00
53908;BME280;40469;47.998;7.794;2023-12-07T11:42:10;99169.34;;;3.61;100.00
53908;BME280;40469;47.998;7.794;2023-12-07T11:44:40;99155.44;;;3.54;100.00
53908;BME280;40469;47.998;7.794;2023-12-07T11:47:06;99161.09;;;3.36;100.00
53908;BME280;40469;47.998;7.794;2023-12-07T11:49:32;99155.66;;;2.88;100.00
53908;BME280;40469;47.998;7.794;2023-12-07T11:51:58;99152.53;;;3.80;100.00
53908;BME280;40469;47.998;7.794;2023-12-07T11:54:25;99149.88;;;4.21;100.00
53908;BME280;40469;47.998;7.794;2023-12-07T11:56:54;99149.53;;;4.01;100.00
53908;BME280;40469;47.998;7.794;2023-12-07T11:59:20;99142.50;;;3.13;100.00
53908;BME280;40469;47.998;7.794;2023-12-07T12:01:48;99149.25;;;2.72;100.00
53908;BME280;40469;47.998;7.794;2023-12-07T12:04:18;99145.97;;;2.77;100.00
53908;BME280;40469;47.998;7.794;2023-12-07T12:06:44;99145.31;;;2.86;100.00
53908;BME280;40469;47.998;7.794;2023-12-07T12:09:12;99155.22;;;2.69;100.00
53908;BME280;40469;47.998;7.794;2023-12-07T12:11:38;99157.50;;;2.57;100.00
53908;BME280;40469;47.998;7.794;2023-12-07T12:14:08;99155.72;;;2.54;100.00
53908;BME280;40469;47.998;7.794;2023-12-07T12:16:34;99154.41;;;2.37;100.00
53908;BME280;40469;47.998;7.794;2023-12-07T12:18:59;99159.31;;;2.27;100.00
53908;BME280;40469;47.998;7.794;2023-12-07T12:21:25;99160.88;;;2.21;100.00
53908;BME280;40469;47.998;7.794;2023-12-07T12:23:50;99163.16;;;2.12;100.00
53908;BME280;40469;47.998;7.794;2023-12-07T12:26:16;99158.59;;;1.69;100.00
53908;BME280;40469;47.998;7.794;2023-12-07T12:28:43;99163.31;;;1.27;100.00
53908;BME280;40469;47.998;7.794;2023-12-07T12:31:10;99167.16;;;1.12;100.00
53908;BME280;40469;47.998;7.794;2023-12-07T12:33:37;99178.81;;;1.01;100.00
53908;BME280;40469;47.998;7.794;2023-12-07T12:36:04;99175.47;;;1.04;100.00
53908;BME280;40469;47.998;7.794;2023-12-07T12:38:32;99169.22;;;0.96;100.00
53908;BME280;40469;47.998;7.794;2023-12-07T12:40:57;99171.47;;;0.86;100.00
53908;BME280;40469;47.998;7.794;2023-12-07T12:43:22;99172.53;;;1.19;100.00
53908;BME280;40469;47.998;7.794;2023-12-07T12:45:48;99170.25;;;1.01;100.00
53908;BME280;40469;47.998;7.794;2023-12-07T12:48:13;99171.66;;;0.91;100.00
53908;BME280;40469;47.998;7.794;2023-12-07T12:50:41;99175.81;;;1.14;100.00
53908;BME280;40469;47.998;7.794;2023-12-07T12:53:08;99165.72;;;0.66;100.00